sensor_id;sensor_type;location;lat;lon;timestamp;temperature;humidity
78184;DHT22;67442;44.570;18.610;2023-10-31T00:02:24;22.40;71.80
78184;DHT22;67442;44.570;18.610;2023-10-31T00:04:52;22.40;71.80
78184;DHT22;67442;44.570;18.610;2023-10-31T00:07:19;22.40;71.80
78184;DHT22;67442;44.570;18.610;2023-10-31T00:09:47;22.40;71.80
78184;DHT22;67442;44.570;18.610;2023-10-31T00:12:18;22.40;71.80
78184;DHT22;67442;44.570;18.610;2023-10-31T00:14:45;22.40;71.80
78184;DHT22;67442;44.570;18.610;2023-10-31T00:17:13;22.40;71.80
78184;DHT22;67442;44.570;18.610;2023-10-31T00:19:44;22.40;71.80
78184;DHT22;67442;44.570;18.610;2023-10-31T00:22:11;22.40;71.80
78184;DHT22;67442;44.570;18.610;2023-10-31T00:24:39;22.40;71.80
78184;DHT22;67442;44.570;18.610;2023-10-31T00:27:07;22.40;71.80
78184;DHT22;67442;44.570;18.610;2023-10-31T00:29:34;22.40;71.80
78184;DHT22;67442;44.570;18.610;2023-10-31T00:32:01;22.40;71.80
78184;DHT22;67442;44.570;18.610;2023-10-31T00:34:29;22.40;71.80
78184;DHT22;67442;44.570;18.610;2023-10-31T00:37:00;22.40;71.80
78184;DHT22;67442;44.570;18.610;2023-10-31T00:39:31;22.40;71.80
78184;DHT22;67442;44.570;18.610;2023-10-31T00:42:00;22.40;71.80
78184;DHT22;67442;44.570;18.610;2023-10-31T00:44:27;22.40;71.80
78184;DHT22;67442;44.570;18.610;2023-10-31T00:46:54;22.40;71.70
78184;DHT22;67442;44.570;18.610;2023-10-31T00:49:21;22.40;71.70
78184;DHT22;67442;44.570;18.610;2023-10-31T00:51:49;22.30;71.60
78184;DHT22;67442;44.570;18.610;2023-10-31T00:54:17;22.30;71.60
78184;DHT22;67442;44.570;18.610;2023-10-31T00:56:44;22.30;71.60
78184;DHT22;67442;44.570;18.610;2023-10-31T00:59:16;22.30;71.60
78184;DHT22;67442;44.570;18.610;2023-10-31T01:01:47;22.40;71.70
78184;DHT22;67442;44.570;18.610;2023-10-31T01:04:14;22.40;71.70
78184;DHT22;67442;44.570;18.610;2023-10-31T01:06:45;22.30;71.60
78184;DHT22;67442;44.570;18.610;2023-10-31T01:09:12;22.30;71.60
78184;DHT22;67442;44.570;18.610;2023-10-31T01:11:40;22.30;72.40
78184;DHT22;67442;44.570;18.610;2023-10-31T01:14:07;22.30;71.60
78184;DHT22;67442;44.570;18.610;2023-10-31T01:16:34;22.30;71.60
78184;DHT22;67442;44.570;18.610;2023-10-31T01:19:02;22.30;71.60
78184;DHT22;67442;44.570;18.610;2023-10-31T01:21:30;22.30;71.60
78184;DHT22;67442;44.570;18.610;2023-10-31T01:23:59;22.30;71.60
78184;DHT22;67442;44.570;18.610;2023-10-31T01:26:25;22.30;71.60
78184;DHT22;67442;44.570;18.610;2023-10-31T01:28:53;22.30;71.60
78184;DHT22;67442;44.570;18.610;2023-10-31T01:31:20;22.30;71.60
78184;DHT22;67442;44.570;18.610;2023-10-31T01:33:48;22.30;71.60
78184;DHT22;67442;44.570;18.610;2023-10-31T01:36:19;22.30;71.60
78184;DHT22;67442;44.570;18.610;2023-10-31T01:38:46;22.30;71.60
78184;DHT22;67442;44.570;18.610;2023-10-31T01:41:17;22.30;71.60
78184;DHT22;67442;44.570;18.610;2023-10-31T01:43:45;22.30;71.60
78184;DHT22;67442;44.570;18.610;2023-10-31T01:46:12;22.30;71.60
78184;DHT22;67442;44.570;18.610;2023-10-31T01:48:39;22.30;71.60
78184;DHT22;67442;44.570;18.610;2023-10-31T01:51:07;22.30;71.60
78184;DHT22;67442;44.570;18.610;2023-10-31T01:53:35;22.30;71.60
78184;DHT22;67442;44.570;18.610;2023-10-31T01:56:04;22.30;71.60
78184;DHT22;67442;44.570;18.610;2023-10-31T01:58:36;22.30;71.60
78184;DHT22;67442;44.570;18.610;2023-10-31T02:01:23;22.30;72.30
78184;DHT22;67442;44.570;18.610;2023-10-31T02:03:51;22.30;71.60
78184;DHT22;67442;44.570;18.610;2023-10-31T02:06:19;22.30;71.60
78184;DHT22;67442;44.570;18.610;2023-10-31T02:08:47;22.30;71.60
78184;DHT22;67442;44.570;18.610;2023-10-31T02:11:18;22.30;71.60
78184;DHT22;67442;44.570;18.610;2023-10-31T02:13:45;22.30;71.60
78184;DHT22;67442;44.570;18.610;2023-10-31T02:16:13;22.30;71.60
78184;DHT22;67442;44.570;18.610;2023-10-31T02:18:40;22.30;71.60
78184;DHT22;67442;44.570;18.610;2023-10-31T02:21:08;22.30;71.60
78184;DHT22;67442;44.570;18.610;2023-10-31T02:23:35;22.30;71.70
78184;DHT22;67442;44.570;18.610;2023-10-31T02:26:06;22.30;71.60
78184;DHT22;67442;44.570;18.610;2023-10-31T02:28:38;22.30;71.60
78184;DHT22;67442;44.570;18.610;2023-10-31T02:31:05;22.30;71.60
78184;DHT22;67442;44.570;18.610;2023-10-31T02:33:33;22.30;71.60
78184;DHT22;67442;44.570;18.610;2023-10-31T02:35:59;22.30;71.60
78184;DHT22;67442;44.570;18.610;2023-10-31T02:38:27;22.30;71.60
78184;DHT22;67442;44.570;18.610;2023-10-31T02:40:54;22.30;71.60
78184;DHT22;67442;44.570;18.610;2023-10-31T02:43:25;22.30;71.60
78184;DHT22;67442;44.570;18.610;2023-10-31T02:45:53;22.30;71.60
78184;DHT22;67442;44.570;18.610;2023-10-31T02:48:20;22.30;71.60
78184;DHT22;67442;44.570;18.610;2023-10-31T02:50:47;22.30;71.60
78184;DHT22;67442;44.570;18.610;2023-10-31T02:53:15;22.30;71.60
78184;DHT22;67442;44.570;18.610;2023-10-31T02:55:42;22.30;71.70
78184;DHT22;67442;44.570;18.610;2023-10-31T02:58:14;22.30;71.60
78184;DHT22;67442;44.570;18.610;2023-10-31T03:00:43;22.30;71.60
78184;DHT22;67442;44.570;18.610;2023-10-31T03:03:11;22.30;71.60
78184;DHT22;67442;44.570;18.610;2023-10-31T03:05:38;22.30;71.60
78184;DHT22;67442;44.570;18.610;2023-10-31T03:08:05;22.30;71.60
78184;DHT22;67442;44.570;18.610;2023-10-31T03:10:34;22.30;72.50
78184;DHT22;67442;44.570;18.610;2023-10-31T03:13:01;22.30;71.60
78184;DHT22;67442;44.570;18.610;2023-10-31T03:15:29;22.30;71.60
78184;DHT22;67442;44.570;18.610;2023-10-31T03:17:56;22.30;71.60
78184;DHT22;67442;44.570;18.610;2023-10-31T03:20:24;22.30;71.60
78184;DHT22;67442;44.570;18.610;2023-10-31T03:22:55;22.30;71.70
78184;DHT22;67442;44.570;18.610;2023-10-31T03:25:26;22.30;71.60
78184;DHT22;67442;44.570;18.610;2023-10-31T03:27:57;22.30;71.60
78184;DHT22;67442;44.570;18.610;2023-10-31T03:30:25;22.30;71.70
78184;DHT22;67442;44.570;18.610;2023-10-31T03:32:52;22.30;71.70
78184;DHT22;67442;44.570;18.610;2023-10-31T03:35:19;22.30;71.80
78184;DHT22;67442;44.570;18.610;2023-10-31T03:37:47;22.30;71.70
78184;DHT22;67442;44.570;18.610;2023-10-31T03:40:15;22.30;71.70
78184;DHT22;67442;44.570;18.610;2023-10-31T03:42:41;22.30;71.70
78184;DHT22;67442;44.570;18.610;2023-10-31T03:45:10;22.30;71.70
78184;DHT22;67442;44.570;18.610;2023-10-31T03:47:37;22.30;71.80
78184;DHT22;67442;44.570;18.610;2023-10-31T03:50:09;22.30;71.80
78184;DHT22;67442;44.570;18.610;2023-10-31T03:52:37;22.30;71.70
78184;DHT22;67442;44.570;18.610;2023-10-31T03:55:08;22.30;71.80
78184;DHT22;67442;44.570;18.610;2023-10-31T03:57:36;22.30;71.80
78184;DHT22;67442;44.570;18.610;2023-10-31T04:00:04;22.30;71.80
78184;DHT22;67442;44.570;18.610;2023-10-31T04:02:33;22.30;71.80
78184;DHT22;67442;44.570;18.610;2023-10-31T04:05:00;22.30;72.60
78184;DHT22;67442;44.570;18.610;2023-10-31T04:07:32;22.30;71.80
78184;DHT22;67442;44.570;18.610;2023-10-31T04:09:59;22.30;71.80
78184;DHT22;67442;44.570;18.610;2023-10-31T04:12:30;22.30;71.80
78184;DHT22;67442;44.570;18.610;2023-10-31T04:14:57;22.30;71.80
78184;DHT22;67442;44.570;18.610;2023-10-31T04:17:25;22.30;71.80
78184;DHT22;67442;44.570;18.610;2023-10-31T04:19:52;22.30;71.80
78184;DHT22;67442;44.570;18.610;2023-10-31T04:22:20;22.20;71.70
78184;DHT22;67442;44.570;18.610;2023-10-31T04:24:47;22.20;71.80
78184;DHT22;67442;44.570;18.610;2023-10-31T04:27:18;22.30;71.80
78184;DHT22;67442;44.570;18.610;2023-10-31T04:29:45;22.30;71.80
78184;DHT22;67442;44.570;18.610;2023-10-31T04:32:13;22.30;71.80
78184;DHT22;67442;44.570;18.610;2023-10-31T04:34:40;22.20;71.80
78184;DHT22;67442;44.570;18.610;2023-10-31T04:37:07;22.20;71.80
78184;DHT22;67442;44.570;18.610;2023-10-31T04:39:38;22.30;71.80
78184;DHT22;67442;44.570;18.610;2023-10-31T04:42:06;22.30;71.80
78184;DHT22;67442;44.570;18.610;2023-10-31T04:44:37;22.20;71.70
78184;DHT22;67442;44.570;18.610;2023-10-31T04:47:05;22.20;71.70
78184;DHT22;67442;44.570;18.610;2023-10-31T04:49:35;22.20;71.70
78184;DHT22;67442;44.570;18.610;2023-10-31T04:52:06;22.20;71.70
78184;DHT22;67442;44.570;18.610;2023-10-31T04:54:33;22.30;71.80
78184;DHT22;67442;44.570;18.610;2023-10-31T04:57:00;22.20;71.60
78184;DHT22;67442;44.570;18.610;2023-10-31T04:59:28;22.30;71.70
78184;DHT22;67442;44.570;18.610;2023-10-31T05:01:55;22.20;71.60
78184;DHT22;67442;44.570;18.610;2023-10-31T05:04:23;22.20;71.60
78184;DHT22;67442;44.570;18.610;2023-10-31T05:06:50;22.20;71.60
78184;DHT22;67442;44.570;18.610;2023-10-31T05:09:21;22.20;71.60
78184;DHT22;67442;44.570;18.610;2023-10-31T05:11:49;22.20;71.60
78184;DHT22;67442;44.570;18.610;2023-10-31T05:14:21;22.20;71.60
78184;DHT22;67442;44.570;18.610;2023-10-31T05:16:48;22.20;71.60
78184;DHT22;67442;44.570;18.610;2023-10-31T05:19:16;22.20;71.60
78184;DHT22;67442;44.570;18.610;2023-10-31T05:21:44;22.20;71.60
78184;DHT22;67442;44.570;18.610;2023-10-31T05:24:11;22.20;71.60
78184;DHT22;67442;44.570;18.610;2023-10-31T05:26:42;22.20;71.60
78184;DHT22;67442;44.570;18.610;2023-10-31T05:29:14;22.20;71.60
78184;DHT22;67442;44.570;18.610;2023-10-31T05:31:41;22.20;71.60
78184;DHT22;67442;44.570;18.610;2023-10-31T05:34:09;22.20;71.50
78184;DHT22;67442;44.570;18.610;2023-10-31T05:36:37;22.20;71.50
78184;DHT22;67442;44.570;18.610;2023-10-31T05:39:04;22.20;71.50
78184;DHT22;67442;44.570;18.610;2023-10-31T05:41:35;22.20;71.50
78184;DHT22;67442;44.570;18.610;2023-10-31T05:44:06;22.20;71.50
78184;DHT22;67442;44.570;18.610;2023-10-31T05:46:40;22.20;71.50
78184;DHT22;67442;44.570;18.610;2023-10-31T05:49:07;22.20;71.50
78184;DHT22;67442;44.570;18.610;2023-10-31T05:51:39;22.20;71.50
78184;DHT22;67442;44.570;18.610;2023-10-31T05:54:07;22.20;71.60
78184;DHT22;67442;44.570;18.610;2023-10-31T05:56:38;22.20;71.60
78184;DHT22;67442;44.570;18.610;2023-10-31T05:59:08;22.20;71.60
78184;DHT22;67442;44.570;18.610;2023-10-31T06:01:35;22.30;71.70
78184;DHT22;67442;44.570;18.610;2023-10-31T06:04:03;22.30;71.70
78184;DHT22;67442;44.570;18.610;2023-10-31T06:06:37;22.30;71.70
78184;DHT22;67442;44.570;18.610;2023-10-31T06:09:04;22.30;71.70
78184;DHT22;67442;44.570;18.610;2023-10-31T06:11:31;22.30;71.70
78184;DHT22;67442;44.570;18.610;2023-10-31T06:13:59;22.30;71.60
78184;DHT22;67442;44.570;18.610;2023-10-31T06:16:30;22.30;71.70
78184;DHT22;67442;44.570;18.610;2023-10-31T06:18:58;22.30;71.60
78184;DHT22;67442;44.570;18.610;2023-10-31T06:21:28;22.30;71.60
78184;DHT22;67442;44.570;18.610;2023-10-31T06:23:56;22.30;71.60
78184;DHT22;67442;44.570;18.610;2023-10-31T06:26:27;22.30;71.60
78184;DHT22;67442;44.570;18.610;2023-10-31T06:28:58;22.30;71.60
78184;DHT22;67442;44.570;18.610;2023-10-31T06:31:29;22.30;71.60
78184;DHT22;67442;44.570;18.610;2023-10-31T06:33:56;22.30;71.50
78184;DHT22;67442;44.570;18.610;2023-10-31T06:36:23;22.30;71.50
78184;DHT22;67442;44.570;18.610;2023-10-31T06:38:51;22.30;71.50
78184;DHT22;67442;44.570;18.610;2023-10-31T06:41:22;22.30;71.50
78184;DHT22;67442;44.570;18.610;2023-10-31T06:43:53;22.30;71.40
78184;DHT22;67442;44.570;18.610;2023-10-31T06:46:24;22.30;71.40
78184;DHT22;67442;44.570;18.610;2023-10-31T06:48:52;22.30;71.40
78184;DHT22;67442;44.570;18.610;2023-10-31T06:51:19;22.30;71.40
78184;DHT22;67442;44.570;18.610;2023-10-31T06:53:46;22.30;71.40
78184;DHT22;67442;44.570;18.610;2023-10-31T06:56:14;22.30;71.40
78184;DHT22;67442;44.570;18.610;2023-10-31T06:58:41;22.30;71.30
78184;DHT22;67442;44.570;18.610;2023-10-31T07:01:09;22.30;71.20
78184;DHT22;67442;44.570;18.610;2023-10-31T07:03:37;22.30;71.20
78184;DHT22;67442;44.570;18.610;2023-10-31T07:06:05;22.30;71.20
78184;DHT22;67442;44.570;18.610;2023-10-31T07:08:33;22.20;71.20
78184;DHT22;67442;44.570;18.610;2023-10-31T07:11:04;22.30;71.20
78184;DHT22;67442;44.570;18.610;2023-10-31T07:13:35;22.30;71.20
78184;DHT22;67442;44.570;18.610;2023-10-31T07:16:08;22.30;71.20
78184;DHT22;67442;44.570;18.610;2023-10-31T07:18:36;22.30;71.20
78184;DHT22;67442;44.570;18.610;2023-10-31T07:21:03;22.30;71.20
78184;DHT22;67442;44.570;18.610;2023-10-31T07:23:31;22.30;71.20
78184;DHT22;67442;44.570;18.610;2023-10-31T07:26:02;22.30;71.10
78184;DHT22;67442;44.570;18.610;2023-10-31T07:28:30;22.30;71.10
78184;DHT22;67442;44.570;18.610;2023-10-31T07:30:58;22.30;71.10
78184;DHT22;67442;44.570;18.610;2023-10-31T07:33:26;22.30;71.10
78184;DHT22;67442;44.570;18.610;2023-10-31T07:35:54;22.30;71.10
78184;DHT22;67442;44.570;18.610;2023-10-31T07:38:25;22.20;71.80
78184;DHT22;67442;44.570;18.610;2023-10-31T07:40:53;22.20;70.90
78184;DHT22;67442;44.570;18.610;2023-10-31T07:43:20;22.30;71.00
78184;DHT22;67442;44.570;18.610;2023-10-31T07:45:51;22.30;71.00
78184;DHT22;67442;44.570;18.610;2023-10-31T07:48:19;22.30;71.20
78184;DHT22;67442;44.570;18.610;2023-10-31T07:50:50;22.30;71.00
78184;DHT22;67442;44.570;18.610;2023-10-31T07:53:21;22.20;70.90
78184;DHT22;67442;44.570;18.610;2023-10-31T07:55:49;22.30;71.00
78184;DHT22;67442;44.570;18.610;2023-10-31T07:58:16;22.30;71.00
78184;DHT22;67442;44.570;18.610;2023-10-31T08:00:47;22.30;70.90
78184;DHT22;67442;44.570;18.610;2023-10-31T08:03:15;22.30;71.00
78184;DHT22;67442;44.570;18.610;2023-10-31T08:05:46;22.30;70.90
78184;DHT22;67442;44.570;18.610;2023-10-31T08:08:13;22.30;70.90
78184;DHT22;67442;44.570;18.610;2023-10-31T08:10:41;22.30;70.90
78184;DHT22;67442;44.570;18.610;2023-10-31T08:13:08;22.30;70.90
78184;DHT22;67442;44.570;18.610;2023-10-31T08:15:36;22.30;70.90
78184;DHT22;67442;44.570;18.610;2023-10-31T08:18:07;22.30;70.90
78184;DHT22;67442;44.570;18.610;2023-10-31T08:20:38;22.30;70.80
78184;DHT22;67442;44.570;18.610;2023-10-31T08:23:05;22.20;70.80
78184;DHT22;67442;44.570;18.610;2023-10-31T08:25:33;22.20;70.80
78184;DHT22;67442;44.570;18.610;2023-10-31T08:28:01;22.30;70.90
78184;DHT22;67442;44.570;18.610;2023-10-31T08:30:32;22.30;70.90
78184;DHT22;67442;44.570;18.610;2023-10-31T08:33:00;22.20;70.80
78184;DHT22;67442;44.570;18.610;2023-10-31T08:35:31;22.30;70.80
78184;DHT22;67442;44.570;18.610;2023-10-31T08:37:59;22.30;70.90
78184;DHT22;67442;44.570;18.610;2023-10-31T08:40:26;22.30;70.80
78184;DHT22;67442;44.570;18.610;2023-10-31T08:42:54;22.20;70.80
78184;DHT22;67442;44.570;18.610;2023-10-31T08:45:22;22.30;70.80
78184;DHT22;67442;44.570;18.610;2023-10-31T08:47:50;22.30;70.90
78184;DHT22;67442;44.570;18.610;2023-10-31T08:50:17;22.20;70.70
78184;DHT22;67442;44.570;18.610;2023-10-31T08:52:45;22.30;70.80
78184;DHT22;67442;44.570;18.610;2023-10-31T08:55:13;22.20;70.80
78184;DHT22;67442;44.570;18.610;2023-10-31T08:57:40;22.30;70.80
78184;DHT22;67442;44.570;18.610;2023-10-31T09:00:09;22.30;70.80
78184;DHT22;67442;44.570;18.610;2023-10-31T09:02:36;22.30;70.80
78184;DHT22;67442;44.570;18.610;2023-10-31T09:05:03;22.20;70.70
78184;DHT22;67442;44.570;18.610;2023-10-31T09:07:32;22.20;70.70
78184;DHT22;67442;44.570;18.610;2023-10-31T09:10:03;22.30;70.80
78184;DHT22;67442;44.570;18.610;2023-10-31T09:12:32;22.30;70.80
78184;DHT22;67442;44.570;18.610;2023-10-31T09:14:59;22.30;70.80
78184;DHT22;67442;44.570;18.610;2023-10-31T09:17:31;22.20;70.70
78184;DHT22;67442;44.570;18.610;2023-10-31T09:19:58;22.30;70.80
78184;DHT22;67442;44.570;18.610;2023-10-31T09:22:26;22.20;70.70
78184;DHT22;67442;44.570;18.610;2023-10-31T09:24:53;22.20;70.70
78184;DHT22;67442;44.570;18.610;2023-10-31T09:27:24;22.20;70.70
78184;DHT22;67442;44.570;18.610;2023-10-31T09:29:51;22.30;70.70
78184;DHT22;67442;44.570;18.610;2023-10-31T09:32:19;22.20;70.70
78184;DHT22;67442;44.570;18.610;2023-10-31T09:34:47;22.30;70.80
78184;DHT22;67442;44.570;18.610;2023-10-31T09:37:14;22.20;70.70
78184;DHT22;67442;44.570;18.610;2023-10-31T09:39:46;22.30;70.70
78184;DHT22;67442;44.570;18.610;2023-10-31T09:42:17;22.30;70.70
78184;DHT22;67442;44.570;18.610;2023-10-31T09:44:44;22.20;70.70
78184;DHT22;67442;44.570;18.610;2023-10-31T09:47:12;22.20;70.70
78184;DHT22;67442;44.570;18.610;2023-10-31T09:49:40;22.30;70.70
78184;DHT22;67442;44.570;18.610;2023-10-31T09:52:07;22.20;70.70
78184;DHT22;67442;44.570;18.610;2023-10-31T09:54:38;22.20;70.60
78184;DHT22;67442;44.570;18.610;2023-10-31T09:57:10;22.20;70.60
78184;DHT22;67442;44.570;18.610;2023-10-31T09:59:38;22.30;70.70
78184;DHT22;67442;44.570;18.610;2023-10-31T10:02:05;22.20;70.60
78184;DHT22;67442;44.570;18.610;2023-10-31T10:04:34;22.30;70.70
78184;DHT22;67442;44.570;18.610;2023-10-31T10:07:01;22.20;70.60
78184;DHT22;67442;44.570;18.610;2023-10-31T10:09:32;22.30;70.70
78184;DHT22;67442;44.570;18.610;2023-10-31T10:12:00;22.30;70.70
78184;DHT22;67442;44.570;18.610;2023-10-31T10:14:32;22.20;70.60
78184;DHT22;67442;44.570;18.610;2023-10-31T10:17:00;22.20;70.50
78184;DHT22;67442;44.570;18.610;2023-10-31T10:19:31;22.20;70.50
78184;DHT22;67442;44.570;18.610;2023-10-31T10:21:58;22.20;70.60
78184;DHT22;67442;44.570;18.610;2023-10-31T10:24:29;22.30;70.60
78184;DHT22;67442;44.570;18.610;2023-10-31T10:27:01;22.30;70.60
78184;DHT22;67442;44.570;18.610;2023-10-31T10:29:29;22.20;70.50
78184;DHT22;67442;44.570;18.610;2023-10-31T10:32:00;22.30;70.60
78184;DHT22;67442;44.570;18.610;2023-10-31T10:34:28;22.20;70.50
78184;DHT22;67442;44.570;18.610;2023-10-31T10:36:56;22.20;70.50
78184;DHT22;67442;44.570;18.610;2023-10-31T10:39:29;22.30;70.60
78184;DHT22;67442;44.570;18.610;2023-10-31T10:42:01;22.20;70.50
78184;DHT22;67442;44.570;18.610;2023-10-31T10:44:34;22.30;70.50
78184;DHT22;67442;44.570;18.610;2023-10-31T10:47:07;22.20;70.50
78184;DHT22;67442;44.570;18.610;2023-10-31T10:49:37;22.30;70.50
78184;DHT22;67442;44.570;18.610;2023-10-31T10:57:26;22.30;70.50
78184;DHT22;67442;44.570;18.610;2023-10-31T11:00:01;22.30;70.50
78184;DHT22;67442;44.570;18.610;2023-10-31T11:02:30;22.30;70.50
78184;DHT22;67442;44.570;18.610;2023-10-31T11:05:04;22.20;70.50
78184;DHT22;67442;44.570;18.610;2023-10-31T11:07:34;22.20;70.40
78184;DHT22;67442;44.570;18.610;2023-10-31T11:10:02;22.20;70.40
78184;DHT22;67442;44.570;18.610;2023-10-31T11:12:32;22.30;70.50
78184;DHT22;67442;44.570;18.610;2023-10-31T11:14:59;22.30;70.50
78184;DHT22;67442;44.570;18.610;2023-10-31T11:17:34;22.30;70.50
78184;DHT22;67442;44.570;18.610;2023-10-31T11:20:09;22.30;70.50
78184;DHT22;67442;44.570;18.610;2023-10-31T11:22:41;22.20;70.40
78184;DHT22;67442;44.570;18.610;2023-10-31T11:25:20;22.30;70.50
78184;DHT22;67442;44.570;18.610;2023-10-31T11:27:53;22.30;70.50
78184;DHT22;67442;44.570;18.610;2023-10-31T11:30:33;22.30;70.50
78184;DHT22;67442;44.570;18.610;2023-10-31T11:33:05;22.30;70.50
78184;DHT22;67442;44.570;18.610;2023-10-31T11:35:39;22.30;70.50
78184;DHT22;67442;44.570;18.610;2023-10-31T11:38:08;22.30;70.40
78184;DHT22;67442;44.570;18.610;2023-10-31T11:40:36;22.30;70.50
78184;DHT22;67442;44.570;18.610;2023-10-31T11:43:04;22.30;70.40
78184;DHT22;67442;44.570;18.610;2023-10-31T11:45:43;22.20;70.40
78184;DHT22;67442;44.570;18.610;2023-10-31T11:48:15;22.30;70.50
78184;DHT22;67442;44.570;18.610;2023-10-31T11:50:45;22.30;70.40
78184;DHT22;67442;44.570;18.610;2023-10-31T11:53:14;22.20;70.40
78184;DHT22;67442;44.570;18.610;2023-10-31T11:55:44;22.30;70.40
78184;DHT22;67442;44.570;18.610;2023-10-31T11:58:19;22.20;71.20
78184;DHT22;67442;44.570;18.610;2023-10-31T12:00:50;22.30;70.50
78184;DHT22;67442;44.570;18.610;2023-10-31T12:03:19;22.20;70.40
78184;DHT22;67442;44.570;18.610;2023-10-31T12:05:56;22.30;70.40
78184;DHT22;67442;44.570;18.610;2023-10-31T12:08:32;22.30;70.40
78184;DHT22;67442;44.570;18.610;2023-10-31T12:11:08;22.30;70.40
78184;DHT22;67442;44.570;18.610;2023-10-31T12:13:40;22.20;70.40
78184;DHT22;67442;44.570;18.610;2023-10-31T12:16:12;22.20;70.40
78184;DHT22;67442;44.570;18.610;2023-10-31T12:18:39;22.20;70.40
78184;DHT22;67442;44.570;18.610;2023-10-31T12:21:07;22.20;70.40
78184;DHT22;67442;44.570;18.610;2023-10-31T12:23:40;22.20;70.40
78184;DHT22;67442;44.570;18.610;2023-10-31T12:26:07;22.20;70.30
78184;DHT22;67442;44.570;18.610;2023-10-31T12:28:39;22.20;70.40
78184;DHT22;67442;44.570;18.610;2023-10-31T12:31:06;22.20;70.30
78184;DHT22;67442;44.570;18.610;2023-10-31T12:33:38;22.20;70.30
78184;DHT22;67442;44.570;18.610;2023-10-31T12:36:07;22.20;70.30
78184;DHT22;67442;44.570;18.610;2023-10-31T12:38:35;22.20;70.30
78184;DHT22;67442;44.570;18.610;2023-10-31T12:41:06;22.20;70.30
78184;DHT22;67442;44.570;18.610;2023-10-31T12:43:37;22.30;70.40
78184;DHT22;67442;44.570;18.610;2023-10-31T12:46:29;22.30;70.40
78184;DHT22;67442;44.570;18.610;2023-10-31T12:48:57;22.30;70.40
78184;DHT22;67442;44.570;18.610;2023-10-31T12:51:27;22.20;70.30
78184;DHT22;67442;44.570;18.610;2023-10-31T12:53:58;22.30;70.40
78184;DHT22;67442;44.570;18.610;2023-10-31T12:56:41;22.20;70.30
78184;DHT22;67442;44.570;18.610;2023-10-31T12:59:10;22.20;70.30
78184;DHT22;67442;44.570;18.610;2023-10-31T13:01:56;22.20;70.30
78184;DHT22;67442;44.570;18.610;2023-10-31T13:04:28;22.30;70.40
78184;DHT22;67442;44.570;18.610;2023-10-31T13:07:02;22.20;70.30
78184;DHT22;67442;44.570;18.610;2023-10-31T13:09:36;22.30;70.40
78184;DHT22;67442;44.570;18.610;2023-10-31T13:12:09;22.20;70.30
78184;DHT22;67442;44.570;18.610;2023-10-31T13:14:37;22.30;70.40
78184;DHT22;67442;44.570;18.610;2023-10-31T13:17:08;22.30;70.40
78184;DHT22;67442;44.570;18.610;2023-10-31T13:19:35;22.30;70.40
78184;DHT22;67442;44.570;18.610;2023-10-31T13:22:03;22.30;70.30
78184;DHT22;67442;44.570;18.610;2023-10-31T13:24:30;22.30;70.40
78184;DHT22;67442;44.570;18.610;2023-10-31T13:26:58;22.30;70.40
78184;DHT22;67442;44.570;18.610;2023-10-31T13:29:31;22.20;70.30
78184;DHT22;67442;44.570;18.610;2023-10-31T13:32:02;22.30;70.30
78184;DHT22;67442;44.570;18.610;2023-10-31T13:34:30;22.30;70.30
78184;DHT22;67442;44.570;18.610;2023-10-31T13:36:59;22.30;70.30
78184;DHT22;67442;44.570;18.610;2023-10-31T13:39:31;22.30;70.30
78184;DHT22;67442;44.570;18.610;2023-10-31T13:42:02;22.30;70.30
78184;DHT22;67442;44.570;18.610;2023-10-31T13:44:30;22.30;70.30
78184;DHT22;67442;44.570;18.610;2023-10-31T13:47:01;22.20;70.20
78184;DHT22;67442;44.570;18.610;2023-10-31T13:49:29;22.30;70.30
78184;DHT22;67442;44.570;18.610;2023-10-31T13:51:56;22.30;70.30
78184;DHT22;67442;44.570;18.610;2023-10-31T13:54:24;22.30;70.30
78184;DHT22;67442;44.570;18.610;2023-10-31T13:56:51;22.30;70.20
78184;DHT22;67442;44.570;18.610;2023-10-31T13:59:22;22.20;70.20
78184;DHT22;67442;44.570;18.610;2023-10-31T14:01:53;22.30;70.30
78184;DHT22;67442;44.570;18.610;2023-10-31T14:04:20;22.30;70.30
78184;DHT22;67442;44.570;18.610;2023-10-31T14:06:48;22.30;70.30
78184;DHT22;67442;44.570;18.610;2023-10-31T14:09:15;22.30;70.30
78184;DHT22;67442;44.570;18.610;2023-10-31T14:11:42;22.30;70.20
78184;DHT22;67442;44.570;18.610;2023-10-31T14:14:10;22.30;70.30
78184;DHT22;67442;44.570;18.610;2023-10-31T14:16:46;22.30;70.30
78184;DHT22;67442;44.570;18.610;2023-10-31T14:19:14;22.30;70.30
78184;DHT22;67442;44.570;18.610;2023-10-31T14:21:42;22.30;70.20
78184;DHT22;67442;44.570;18.610;2023-10-31T14:24:10;22.30;70.20
78184;DHT22;67442;44.570;18.610;2023-10-31T14:26:38;22.30;70.20
78184;DHT22;67442;44.570;18.610;2023-10-31T14:29:07;22.30;70.30
78184;DHT22;67442;44.570;18.610;2023-10-31T14:31:38;22.20;70.20
78184;DHT22;67442;44.570;18.610;2023-10-31T14:34:06;22.30;70.30
78184;DHT22;67442;44.570;18.610;2023-10-31T14:36:33;22.30;70.30
78184;DHT22;67442;44.570;18.610;2023-10-31T14:39:01;22.30;70.20
78184;DHT22;67442;44.570;18.610;2023-10-31T14:41:28;22.30;70.30
78184;DHT22;67442;44.570;18.610;2023-10-31T14:44:02;22.30;70.20
78184;DHT22;67442;44.570;18.610;2023-10-31T14:46:30;22.30;70.20
78184;DHT22;67442;44.570;18.610;2023-10-31T14:49:01;22.30;70.20
78184;DHT22;67442;44.570;18.610;2023-10-31T14:51:29;22.30;70.20
78184;DHT22;67442;44.570;18.610;2023-10-31T14:53:56;22.30;70.20
78184;DHT22;67442;44.570;18.610;2023-10-31T14:56:24;22.30;70.20
78184;DHT22;67442;44.570;18.610;2023-10-31T14:58:53;22.30;70.20
78184;DHT22;67442;44.570;18.610;2023-10-31T15:01:20;22.30;70.20
78184;DHT22;67442;44.570;18.610;2023-10-31T15:03:47;22.30;70.30
78184;DHT22;67442;44.570;18.610;2023-10-31T15:06:15;22.20;70.20
78184;DHT22;67442;44.570;18.610;2023-10-31T15:08:46;22.20;70.20
78184;DHT22;67442;44.570;18.610;2023-10-31T15:11:17;22.30;70.30
78184;DHT22;67442;44.570;18.610;2023-10-31T15:13:44;22.20;70.20
78184;DHT22;67442;44.570;18.610;2023-10-31T15:16:11;22.30;70.20
78184;DHT22;67442;44.570;18.610;2023-10-31T15:18:38;22.20;70.20
78184;DHT22;67442;44.570;18.610;2023-10-31T15:21:05;22.30;70.20
78184;DHT22;67442;44.570;18.610;2023-10-31T15:23:33;22.20;70.20
78184;DHT22;67442;44.570;18.610;2023-10-31T15:26:06;22.20;70.20
78184;DHT22;67442;44.570;18.610;2023-10-31T15:28:42;22.30;70.30
78184;DHT22;67442;44.570;18.610;2023-10-31T15:31:10;22.20;70.30
78184;DHT22;67442;44.570;18.610;2023-10-31T15:33:38;22.20;70.20